sensor_id;sensor_type;location;lat;lon;timestamp;P1;durP1;ratioP1;P2;durP2;ratioP2
13255;SDS011;37913;48.370;10.930;2022-12-07T00:00:19;70.47;;;34.05;;
13255;SDS011;37913;48.370;10.930;2022-12-07T00:02:46;75.80;;;34.78;;
13255;SDS011;37913;48.370;10.930;2022-12-07T00:05:15;79.85;;;36.22;;
13255;SDS011;37913;48.370;10.930;2022-12-07T00:07:42;74.60;;;34.33;;
13255;SDS011;37913;48.370;10.930;2022-12-07T00:10:09;75.75;;;34.78;;
13255;SDS011;37913;48.370;10.930;2022-12-07T00:12:36;73.40;;;34.53;;
13255;SDS011;37913;48.370;10.930;2022-12-07T00:15:03;75.22;;;35.25;;
13255;SDS011;37913;48.370;10.930;2022-12-07T00:17:30;71.22;;;33.70;;
13255;SDS011;37913;48.370;10.930;2022-12-07T00:19:58;76.07;;;34.67;;
13255;SDS011;37913;48.370;10.930;2022-12-07T00:22:26;77.28;;;35.38;;
13255;SDS011;37913;48.370;10.930;2022-12-07T00:24:53;100.37;;;41.47;;
13255;SDS011;37913;48.370;10.930;2022-12-07T00:27:20;73.47;;;33.55;;
13255;SDS011;37913;48.370;10.930;2022-12-07T00:29:47;74.17;;;34.67;;
13255;SDS011;37913;48.370;10.930;2022-12-07T00:32:14;73.75;;;34.53;;
13255;SDS011;37913;48.370;10.930;2022-12-07T00:34:41;69.53;;;33.00;;
13255;SDS011;37913;48.370;10.930;2022-12-07T00:37:08;75.28;;;34.95;;
13255;SDS011;37913;48.370;10.930;2022-12-07T00:39:36;80.00;;;35.40;;
13255;SDS011;37913;48.370;10.930;2022-12-07T00:42:03;75.20;;;34.90;;
13255;SDS011;37913;48.370;10.930;2022-12-07T00:44:30;76.33;;;35.83;;
13255;SDS011;37913;48.370;10.930;2022-12-07T00:46:57;75.38;;;35.42;;
13255;SDS011;37913;48.370;10.930;2022-12-07T00:49:24;71.73;;;33.70;;
13255;SDS011;37913;48.370;10.930;2022-12-07T00:51:51;72.93;;;34.45;;
13255;SDS011;37913;48.370;10.930;2022-12-07T00:54:18;76.72;;;34.58;;
13255;SDS011;37913;48.370;10.930;2022-12-07T00:56:46;72.65;;;33.83;;
13255;SDS011;37913;48.370;10.930;2022-12-07T00:59:14;75.40;;;34.60;;
13255;SDS011;37913;48.370;10.930;2022-12-07T01:01:41;69.78;;;33.05;;
13255;SDS011;37913;48.370;10.930;2022-12-07T01:04:08;78.88;;;36.03;;
13255;SDS011;37913;48.370;10.930;2022-12-07T01:06:35;74.55;;;34.70;;
13255;SDS011;37913;48.370;10.930;2022-12-07T01:09:02;78.38;;;35.30;;
13255;SDS011;37913;48.370;10.930;2022-12-07T01:11:30;72.23;;;34.20;;
13255;SDS011;37913;48.370;10.930;2022-12-07T01:13:59;72.07;;;33.83;;
13255;SDS011;37913;48.370;10.930;2022-12-07T01:16:27;69.67;;;33.07;;
13255;SDS011;37913;48.370;10.930;2022-12-07T01:18:56;72.38;;;34.13;;
13255;SDS011;37913;48.370;10.930;2022-12-07T01:21:25;71.95;;;33.78;;
13255;SDS011;37913;48.370;10.930;2022-12-07T01:23:53;71.97;;;33.43;;
13255;SDS011;37913;48.370;10.930;2022-12-07T01:26:21;73.03;;;34.37;;
13255;SDS011;37913;48.370;10.930;2022-12-07T01:28:50;71.97;;;33.43;;
13255;SDS011;37913;48.370;10.930;2022-12-07T01:31:24;71.30;;;34.27;;
13255;SDS011;37913;48.370;10.930;2022-12-07T01:33:52;73.63;;;33.28;;
13255;SDS011;37913;48.370;10.930;2022-12-07T01:36:21;72.85;;;34.13;;
13255;SDS011;37913;48.370;10.930;2022-12-07T01:38:49;79.45;;;35.63;;
13255;SDS011;37913;48.370;10.930;2022-12-07T01:41:18;78.60;;;35.50;;
13255;SDS011;37913;48.370;10.930;2022-12-07T01:46:44;72.80;;;34.60;;
13255;SDS011;37913;48.370;10.930;2022-12-07T01:49:14;72.17;;;33.67;;
13255;SDS011;37913;48.370;10.930;2022-12-07T01:51:58;77.00;;;35.70;;
13255;SDS011;37913;48.370;10.930;2022-12-07T01:54:33;74.20;;;35.40;;
13255;SDS011;37913;48.370;10.930;2022-12-07T01:57:01;70.47;;;33.35;;
13255;SDS011;37913;48.370;10.930;2022-12-07T01:59:28;70.90;;;33.67;;
13255;SDS011;37913;48.370;10.930;2022-12-07T02:01:57;69.57;;;32.77;;
13255;SDS011;37913;48.370;10.930;2022-12-07T02:04:24;75.30;;;34.83;;
13255;SDS011;37913;48.370;10.930;2022-12-07T02:06:51;77.07;;;35.60;;
13255;SDS011;37913;48.370;10.930;2022-12-07T02:09:19;73.93;;;34.27;;
13255;SDS011;37913;48.370;10.930;2022-12-07T02:11:46;72.90;;;34.27;;
13255;SDS011;37913;48.370;10.930;2022-12-07T02:14:14;72.35;;;33.53;;
13255;SDS011;37913;48.370;10.930;2022-12-07T02:16:44;76.90;;;35.13;;
13255;SDS011;37913;48.370;10.930;2022-12-07T02:19:26;71.75;;;33.63;;
13255;SDS011;37913;48.370;10.930;2022-12-07T02:22:10;71.18;;;33.85;;
13255;SDS011;37913;48.370;10.930;2022-12-07T02:24:52;93.97;;;40.20;;
13255;SDS011;37913;48.370;10.930;2022-12-07T02:27:34;75.00;;;34.87;;
13255;SDS011;37913;48.370;10.930;2022-12-07T02:30:09;76.93;;;35.47;;
13255;SDS011;37913;48.370;10.930;2022-12-07T02:32:40;76.70;;;35.47;;
13255;SDS011;37913;48.370;10.930;2022-12-07T02:35:13;72.90;;;33.97;;
13255;SDS011;37913;48.370;10.930;2022-12-07T02:37:47;74.80;;;34.87;;
13255;SDS011;37913;48.370;10.930;2022-12-07T02:40:25;75.53;;;34.70;;
13255;SDS011;37913;48.370;10.930;2022-12-07T02:43:12;71.40;;;33.50;;
13255;SDS011;37913;48.370;10.930;2022-12-07T02:45:44;73.80;;;34.37;;
13255;SDS011;37913;48.370;10.930;2022-12-07T02:48:13;79.43;;;36.20;;
13255;SDS011;37913;48.370;10.930;2022-12-07T02:50:44;75.93;;;35.13;;
13255;SDS011;37913;48.370;10.930;2022-12-07T02:55:57;76.03;;;35.23;;
13255;SDS011;37913;48.370;10.930;2022-12-07T02:58:28;83.77;;;37.17;;
13255;SDS011;37913;48.370;10.930;2022-12-07T03:01:04;72.47;;;33.97;;
13255;SDS011;37913;48.370;10.930;2022-12-07T03:03:40;77.33;;;35.23;;
13255;SDS011;37913;48.370;10.930;2022-12-07T03:06:24;71.60;;;33.73;;
13255;SDS011;37913;48.370;10.930;2022-12-07T03:08:58;72.17;;;33.50;;
13255;SDS011;37913;48.370;10.930;2022-12-07T03:11:32;72.60;;;34.05;;
13255;SDS011;37913;48.370;10.930;2022-12-07T03:14:09;71.40;;;33.73;;
13255;SDS011;37913;48.370;10.930;2022-12-07T03:16:45;73.90;;;34.10;;
13255;SDS011;37913;48.370;10.930;2022-12-07T03:19:19;78.85;;;36.05;;
13255;SDS011;37913;48.370;10.930;2022-12-07T03:21:49;71.53;;;34.17;;
13255;SDS011;37913;48.370;10.930;2022-12-07T03:24:21;70.93;;;33.63;;
13255;SDS011;37913;48.370;10.930;2022-12-07T03:26:53;72.37;;;33.83;;
13255;SDS011;37913;48.370;10.930;2022-12-07T03:29:25;75.47;;;34.63;;
13255;SDS011;37913;48.370;10.930;2022-12-07T03:31:57;74.77;;;35.03;;
13255;SDS011;37913;48.370;10.930;2022-12-07T03:34:32;70.60;;;33.63;;
13255;SDS011;37913;48.370;10.930;2022-12-07T03:37:03;73.13;;;34.03;;
13255;SDS011;37913;48.370;10.930;2022-12-07T03:39:34;71.80;;;34.33;;
13255;SDS011;37913;48.370;10.930;2022-12-07T03:42:05;73.03;;;34.75;;
13255;SDS011;37913;48.370;10.930;2022-12-07T03:44:36;70.13;;;34.47;;
13255;SDS011;37913;48.370;10.930;2022-12-07T03:47:08;71.03;;;33.77;;
13255;SDS011;37913;48.370;10.930;2022-12-07T03:49:40;71.00;;;33.50;;
13255;SDS011;37913;48.370;10.930;2022-12-07T03:52:12;73.87;;;34.70;;
13255;SDS011;37913;48.370;10.930;2022-12-07T03:54:55;83.20;;;36.63;;
13255;SDS011;37913;48.370;10.930;2022-12-07T03:57:25;73.43;;;34.20;;
13255;SDS011;37913;48.370;10.930;2022-12-07T03:59:54;73.33;;;34.10;;
13255;SDS011;37913;48.370;10.930;2022-12-07T04:02:24;77.37;;;35.43;;
13255;SDS011;37913;48.370;10.930;2022-12-07T04:04:54;81.37;;;36.13;;
13255;SDS011;37913;48.370;10.930;2022-12-07T04:07:21;68.00;;;33.43;;
13255;SDS011;37913;48.370;10.930;2022-12-07T04:09:48;79.10;;;36.45;;
13255;SDS011;37913;48.370;10.930;2022-12-07T04:12:15;71.67;;;34.07;;
13255;SDS011;37913;48.370;10.930;2022-12-07T04:14:42;76.87;;;35.43;;
13255;SDS011;37913;48.370;10.930;2022-12-07T04:17:09;76.13;;;35.17;;
13255;SDS011;37913;48.370;10.930;2022-12-07T04:19:38;74.87;;;35.20;;
13255;SDS011;37913;48.370;10.930;2022-12-07T04:22:05;74.70;;;35.00;;
13255;SDS011;37913;48.370;10.930;2022-12-07T04:24:33;78.57;;;36.33;;
13255;SDS011;37913;48.370;10.930;2022-12-07T04:27:00;74.50;;;35.13;;
13255;SDS011;37913;48.370;10.930;2022-12-07T04:29:27;73.60;;;34.70;;
13255;SDS011;37913;48.370;10.930;2022-12-07T04:31:54;71.07;;;34.13;;
13255;SDS011;37913;48.370;10.930;2022-12-07T04:34:22;74.33;;;35.07;;
13255;SDS011;37913;48.370;10.930;2022-12-07T04:36:50;74.63;;;35.23;;
13255;SDS011;37913;48.370;10.930;2022-12-07T04:39:19;70.43;;;33.93;;
13255;SDS011;37913;48.370;10.930;2022-12-07T04:41:47;74.93;;;35.37;;
13255;SDS011;37913;48.370;10.930;2022-12-07T04:44:14;79.93;;;36.77;;
13255;SDS011;37913;48.370;10.930;2022-12-07T04:46:42;73.23;;;35.00;;
13255;SDS011;37913;48.370;10.930;2022-12-07T04:49:09;71.83;;;34.20;;
13255;SDS011;37913;48.370;10.930;2022-12-07T04:51:37;81.10;;;36.37;;
13255;SDS011;37913;48.370;10.930;2022-12-07T04:54:05;75.07;;;35.40;;
13255;SDS011;37913;48.370;10.930;2022-12-07T04:56:32;76.40;;;35.30;;
13255;SDS011;37913;48.370;10.930;2022-12-07T04:59:00;74.23;;;35.23;;
13255;SDS011;37913;48.370;10.930;2022-12-07T05:01:29;86.30;;;38.38;;
13255;SDS011;37913;48.370;10.930;2022-12-07T05:03:56;78.47;;;36.43;;
13255;SDS011;37913;48.370;10.930;2022-12-07T05:06:25;77.40;;;36.57;;
13255;SDS011;37913;48.370;10.930;2022-12-07T05:08:52;74.20;;;34.97;;
13255;SDS011;37913;48.370;10.930;2022-12-07T05:11:21;74.53;;;35.10;;
13255;SDS011;37913;48.370;10.930;2022-12-07T05:14:07;80.37;;;37.03;;
13255;SDS011;37913;48.370;10.930;2022-12-07T05:16:36;79.33;;;36.93;;
13255;SDS011;37913;48.370;10.930;2022-12-07T05:19:04;78.15;;;36.45;;
13255;SDS011;37913;48.370;10.930;2022-12-07T05:21:31;77.43;;;36.63;;
13255;SDS011;37913;48.370;10.930;2022-12-07T05:23:58;73.33;;;35.37;;
13255;SDS011;37913;48.370;10.930;2022-12-07T05:26:26;81.90;;;38.03;;
13255;SDS011;37913;48.370;10.930;2022-12-07T05:28:53;75.77;;;35.37;;
13255;SDS011;37913;48.370;10.930;2022-12-07T05:31:22;76.83;;;35.97;;
13255;SDS011;37913;48.370;10.930;2022-12-07T05:33:49;74.63;;;34.87;;
13255;SDS011;37913;48.370;10.930;2022-12-07T05:36:16;77.80;;;35.87;;
13255;SDS011;37913;48.370;10.930;2022-12-07T05:38:50;75.53;;;35.60;;
13255;SDS011;37913;48.370;10.930;2022-12-07T05:41:17;76.20;;;36.07;;
13255;SDS011;37913;48.370;10.930;2022-12-07T05:44:04;73.83;;;35.13;;
13255;SDS011;37913;48.370;10.930;2022-12-07T05:46:31;70.23;;;34.27;;
13255;SDS011;37913;48.370;10.930;2022-12-07T05:48:58;71.47;;;34.23;;
13255;SDS011;37913;48.370;10.930;2022-12-07T05:51:25;72.47;;;34.27;;
13255;SDS011;37913;48.370;10.930;2022-12-07T05:53:52;77.47;;;36.17;;
13255;SDS011;37913;48.370;10.930;2022-12-07T05:56:19;75.37;;;35.97;;
13255;SDS011;37913;48.370;10.930;2022-12-07T05:58:46;73.70;;;35.33;;
13255;SDS011;37913;48.370;10.930;2022-12-07T06:01:32;80.30;;;35.77;;
13255;SDS011;37913;48.370;10.930;2022-12-07T06:03:59;77.80;;;36.17;;
13255;SDS011;37913;48.370;10.930;2022-12-07T06:06:26;80.87;;;37.70;;
13255;SDS011;37913;48.370;10.930;2022-12-07T06:08:53;77.87;;;35.20;;
13255;SDS011;37913;48.370;10.930;2022-12-07T06:11:20;73.37;;;34.23;;
13255;SDS011;37913;48.370;10.930;2022-12-07T06:14:04;79.83;;;36.80;;
13255;SDS011;37913;48.370;10.930;2022-12-07T06:16:32;78.60;;;36.27;;
13255;SDS011;37913;48.370;10.930;2022-12-07T06:18:59;74.33;;;35.27;;
13255;SDS011;37913;48.370;10.930;2022-12-07T06:21:26;82.17;;;37.17;;
13255;SDS011;37913;48.370;10.930;2022-12-07T06:23:53;81.77;;;37.30;;
13255;SDS011;37913;48.370;10.930;2022-12-07T06:26:20;78.83;;;36.67;;
13255;SDS011;37913;48.370;10.930;2022-12-07T06:28:47;74.63;;;35.13;;
13255;SDS011;37913;48.370;10.930;2022-12-07T06:31:14;86.17;;;39.10;;
13255;SDS011;37913;48.370;10.930;2022-12-07T06:33:42;76.53;;;35.67;;
13255;SDS011;37913;48.370;10.930;2022-12-07T06:36:09;78.90;;;36.17;;
13255;SDS011;37913;48.370;10.930;2022-12-07T06:38:36;78.33;;;36.00;;
13255;SDS011;37913;48.370;10.930;2022-12-07T06:41:03;76.73;;;35.93;;
13255;SDS011;37913;48.370;10.930;2022-12-07T06:43:31;72.00;;;35.20;;
13255;SDS011;37913;48.370;10.930;2022-12-07T06:45:58;83.73;;;37.90;;
13255;SDS011;37913;48.370;10.930;2022-12-07T06:48:26;86.23;;;38.40;;
13255;SDS011;37913;48.370;10.930;2022-12-07T06:50:54;78.87;;;37.50;;
13255;SDS011;37913;48.370;10.930;2022-12-07T06:53:21;84.87;;;38.30;;
13255;SDS011;37913;48.370;10.930;2022-12-07T06:55:49;81.67;;;36.87;;
13255;SDS011;37913;48.370;10.930;2022-12-07T06:58:15;78.23;;;36.53;;
13255;SDS011;37913;48.370;10.930;2022-12-07T07:00:43;83.93;;;37.23;;
13255;SDS011;37913;48.370;10.930;2022-12-07T07:03:10;80.77;;;35.97;;
13255;SDS011;37913;48.370;10.930;2022-12-07T07:08:09;83.83;;;38.00;;
13255;SDS011;37913;48.370;10.930;2022-12-07T07:10:36;83.90;;;38.67;;
13255;SDS011;37913;48.370;10.930;2022-12-07T07:13:03;87.80;;;39.57;;
13255;SDS011;37913;48.370;10.930;2022-12-07T07:15:30;79.67;;;37.10;;
13255;SDS011;37913;48.370;10.930;2022-12-07T07:17:58;88.67;;;39.50;;
13255;SDS011;37913;48.370;10.930;2022-12-07T07:20:25;80.33;;;36.93;;
13255;SDS011;37913;48.370;10.930;2022-12-07T07:22:53;80.47;;;37.17;;
13255;SDS011;37913;48.370;10.930;2022-12-07T07:25:22;83.23;;;37.40;;
13255;SDS011;37913;48.370;10.930;2022-12-07T07:27:49;82.87;;;39.47;;
13255;SDS011;37913;48.370;10.930;2022-12-07T07:30:22;78.93;;;37.40;;
13255;SDS011;37913;48.370;10.930;2022-12-07T07:32:49;76.33;;;35.47;;
13255;SDS011;37913;48.370;10.930;2022-12-07T07:35:16;80.47;;;37.53;;
13255;SDS011;37913;48.370;10.930;2022-12-07T07:37:42;84.97;;;39.67;;
13255;SDS011;37913;48.370;10.930;2022-12-07T07:40:10;81.23;;;38.37;;
13255;SDS011;37913;48.370;10.930;2022-12-07T07:42:38;75.73;;;35.17;;
13255;SDS011;37913;48.370;10.930;2022-12-07T07:45:06;86.30;;;38.20;;
13255;SDS011;37913;48.370;10.930;2022-12-07T07:47:33;80.67;;;37.53;;
13255;SDS011;37913;48.370;10.930;2022-12-07T07:50:00;87.30;;;40.17;;
13255;SDS011;37913;48.370;10.930;2022-12-07T07:52:27;84.50;;;38.73;;
13255;SDS011;37913;48.370;10.930;2022-12-07T07:54:54;101.27;;;42.93;;
13255;SDS011;37913;48.370;10.930;2022-12-07T07:57:21;84.53;;;38.40;;
13255;SDS011;37913;48.370;10.930;2022-12-07T07:59:49;77.50;;;36.03;;
13255;SDS011;37913;48.370;10.930;2022-12-07T08:02:17;83.33;;;38.17;;
13255;SDS011;37913;48.370;10.930;2022-12-07T08:04:45;95.87;;;40.67;;
13255;SDS011;37913;48.370;10.930;2022-12-07T08:07:13;80.37;;;38.17;;
13255;SDS011;37913;48.370;10.930;2022-12-07T08:09:40;83.50;;;38.07;;
13255;SDS011;37913;48.370;10.930;2022-12-07T08:12:10;80.60;;;37.73;;
13255;SDS011;37913;48.370;10.930;2022-12-07T08:14:38;77.50;;;36.43;;
13255;SDS011;37913;48.370;10.930;2022-12-07T08:17:07;80.63;;;37.77;;
13255;SDS011;37913;48.370;10.930;2022-12-07T08:19:34;78.83;;;37.07;;
13255;SDS011;37913;48.370;10.930;2022-12-07T08:22:01;76.40;;;36.20;;
13255;SDS011;37913;48.370;10.930;2022-12-07T08:24:28;77.73;;;37.07;;
13255;SDS011;37913;48.370;10.930;2022-12-07T08:26:55;81.33;;;37.77;;
13255;SDS011;37913;48.370;10.930;2022-12-07T08:29:22;76.33;;;36.37;;
13255;SDS011;37913;48.370;10.930;2022-12-07T08:31:50;82.13;;;37.33;;
13255;SDS011;37913;48.370;10.930;2022-12-07T08:34:18;75.10;;;36.10;;
13255;SDS011;37913;48.370;10.930;2022-12-07T08:36:45;85.95;;;38.97;;
13255;SDS011;37913;48.370;10.930;2022-12-07T08:39:12;79.15;;;36.85;;
13255;SDS011;37913;48.370;10.930;2022-12-07T08:41:39;75.63;;;36.03;;
13255;SDS011;37913;48.370;10.930;2022-12-07T08:44:06;79.85;;;36.60;;
13255;SDS011;37913;48.370;10.930;2022-12-07T08:46:33;80.38;;;36.42;;
13255;SDS011;37913;48.370;10.930;2022-12-07T08:49:05;75.93;;;36.00;;
13255;SDS011;37913;48.370;10.930;2022-12-07T08:51:37;86.25;;;38.53;;
13255;SDS011;37913;48.370;10.930;2022-12-07T08:54:06;79.00;;;36.58;;
13255;SDS011;37913;48.370;10.930;2022-12-07T08:56:37;79.75;;;37.08;;
13255;SDS011;37913;48.370;10.930;2022-12-07T08:59:04;78.78;;;36.47;;
13255;SDS011;37913;48.370;10.930;2022-12-07T09:01:32;81.80;;;36.92;;
13255;SDS011;37913;48.370;10.930;2022-12-07T09:03:59;82.25;;;38.05;;
13255;SDS011;37913;48.370;10.930;2022-12-07T09:06:32;82.97;;;39.55;;
13255;SDS011;37913;48.370;10.930;2022-12-07T09:09:01;80.00;;;37.58;;
13255;SDS011;37913;48.370;10.930;2022-12-07T09:11:29;83.22;;;39.58;;
13255;SDS011;37913;48.370;10.930;2022-12-07T09:13:56;78.70;;;37.40;;
13255;SDS011;37913;48.370;10.930;2022-12-07T09:16:23;76.15;;;37.25;;
13255;SDS011;37913;48.370;10.930;2022-12-07T09:18:50;82.18;;;39.35;;
13255;SDS011;37913;48.370;10.930;2022-12-07T09:21:17;82.45;;;39.63;;
13255;SDS011;37913;48.370;10.930;2022-12-07T09:23:56;80.32;;;39.63;;
13255;SDS011;37913;48.370;10.930;2022-12-07T09:26:24;85.22;;;41.33;;
13255;SDS011;37913;48.370;10.930;2022-12-07T09:28:51;85.70;;;42.25;;
13255;SDS011;37913;48.370;10.930;2022-12-07T09:31:18;86.13;;;43.25;;
13255;SDS011;37913;48.370;10.930;2022-12-07T09:33:45;90.75;;;44.50;;
13255;SDS011;37913;48.370;10.930;2022-12-07T09:36:12;85.63;;;43.90;;
13255;SDS011;37913;48.370;10.930;2022-12-07T09:38:39;83.70;;;43.38;;
13255;SDS011;37913;48.370;10.930;2022-12-07T09:41:06;89.25;;;45.05;;
13255;SDS011;37913;48.370;10.930;2022-12-07T09:43:35;88.47;;;44.63;;
13255;SDS011;37913;48.370;10.930;2022-12-07T09:46:03;90.40;;;44.22;;
13255;SDS011;37913;48.370;10.930;2022-12-07T09:48:32;88.07;;;43.78;;
13255;SDS011;37913;48.370;10.930;2022-12-07T09:51:01;87.78;;;43.22;;
13255;SDS011;37913;48.370;10.930;2022-12-07T09:53:30;87.72;;;42.92;;
13255;SDS011;37913;48.370;10.930;2022-12-07T09:55:59;87.35;;;43.38;;
13255;SDS011;37913;48.370;10.930;2022-12-07T09:58:28;85.18;;;43.33;;
13255;SDS011;37913;48.370;10.930;2022-12-07T10:00:58;87.72;;;43.45;;
13255;SDS011;37913;48.370;10.930;2022-12-07T10:03:31;79.43;;;41.25;;
13255;SDS011;37913;48.370;10.930;2022-12-07T10:05:59;83.05;;;41.97;;
13255;SDS011;37913;48.370;10.930;2022-12-07T10:08:26;81.20;;;41.17;;
13255;SDS011;37913;48.370;10.930;2022-12-07T10:10:54;88.15;;;42.28;;
13255;SDS011;37913;48.370;10.930;2022-12-07T10:16:01;83.75;;;40.35;;
13255;SDS011;37913;48.370;10.930;2022-12-07T10:18:30;86.53;;;41.92;;
13255;SDS011;37913;48.370;10.930;2022-12-07T10:21:05;83.47;;;41.15;;
13255;SDS011;37913;48.370;10.930;2022-12-07T10:23:38;85.38;;;42.22;;
13255;SDS011;37913;48.370;10.930;2022-12-07T10:26:26;83.03;;;41.60;;
13255;SDS011;37913;48.370;10.930;2022-12-07T10:28:59;82.85;;;41.67;;
13255;SDS011;37913;48.370;10.930;2022-12-07T10:31:37;85.80;;;41.92;;
13255;SDS011;37913;48.370;10.930;2022-12-07T10:34:12;84.45;;;41.40;;
13255;SDS011;37913;48.370;10.930;2022-12-07T10:36:46;84.07;;;41.65;;
13255;SDS011;37913;48.370;10.930;2022-12-07T10:39:15;81.45;;;39.70;;
13255;SDS011;37913;48.370;10.930;2022-12-07T10:41:52;87.57;;;41.22;;
13255;SDS011;37913;48.370;10.930;2022-12-07T10:44:22;81.97;;;39.10;;
13255;SDS011;37913;48.370;10.930;2022-12-07T10:47:03;81.28;;;39.38;;
13255;SDS011;37913;48.370;10.930;2022-12-07T10:53:18;78.18;;;37.97;;
13255;SDS011;37913;48.370;10.930;2022-12-07T10:55:58;84.50;;;40.35;;
13255;SDS011;37913;48.370;10.930;2022-12-07T10:58:42;83.78;;;39.47;;
13255;SDS011;37913;48.370;10.930;2022-12-07T11:01:21;83.68;;;39.20;;
13255;SDS011;37913;48.370;10.930;2022-12-07T11:03:55;93.35;;;42.17;;
13255;SDS011;37913;48.370;10.930;2022-12-07T11:06:37;81.45;;;38.05;;
13255;SDS011;37913;48.370;10.930;2022-12-07T11:12:08;78.40;;;37.78;;
13255;SDS011;37913;48.370;10.930;2022-12-07T11:14:44;81.85;;;38.13;;
13255;SDS011;37913;48.370;10.930;2022-12-07T11:17:20;77.93;;;37.15;;
13255;SDS011;37913;48.370;10.930;2022-12-07T11:20:01;80.20;;;36.90;;
13255;SDS011;37913;48.370;10.930;2022-12-07T11:22:40;82.13;;;37.80;;
13255;SDS011;37913;48.370;10.930;2022-12-07T11:25:17;80.13;;;37.90;;
13255;SDS011;37913;48.370;10.930;2022-12-07T11:27:52;90.13;;;39.15;;
13255;SDS011;37913;48.370;10.930;2022-12-07T11:30:32;80.00;;;37.03;;
13255;SDS011;37913;48.370;10.930;2022-12-07T11:33:15;78.82;;;37.45;;
13255;SDS011;37913;48.370;10.930;2022-12-07T11:35:53;79.45;;;37.15;;
13255;SDS011;37913;48.370;10.930;2022-12-07T11:38:30;75.00;;;35.78;;
13255;SDS011;37913;48.370;10.930;2022-12-07T11:41:03;77.40;;;36.47;;
13255;SDS011;37913;48.370;10.930;2022-12-07T11:43:55;76.18;;;35.97;;
13255;SDS011;37913;48.370;10.930;2022-12-07T11:46:25;82.53;;;37.45;;
13255;SDS011;37913;48.370;10.930;2022-12-07T11:49:04;76.53;;;36.00;;
13255;SDS011;37913;48.370;10.930;2022-12-07T11:51:41;77.72;;;37.05;;
13255;SDS011;37913;48.370;10.930;2022-12-07T11:54:12;76.13;;;35.65;;
13255;SDS011;37913;48.370;10.930;2022-12-07T11:56:44;85.53;;;37.92;;
13255;SDS011;37913;48.370;10.930;2022-12-07T11:59:16;74.93;;;35.25;;
13255;SDS011;37913;48.370;10.930;2022-12-07T12:01:50;79.65;;;36.78;;
13255;SDS011;37913;48.370;10.930;2022-12-07T12:04:28;79.30;;;36.10;;
13255;SDS011;37913;48.370;10.930;2022-12-07T12:07:01;78.72;;;36.15;;
13255;SDS011;37913;48.370;10.930;2022-12-07T12:09:35;78.95;;;36.63;;
13255;SDS011;37913;48.370;10.930;2022-12-07T12:12:17;81.10;;;37.05;;
13255;SDS011;37913;48.370;10.930;2022-12-07T12:14:59;113.25;;;46.00;;
13255;SDS011;37913;48.370;10.930;2022-12-07T12:17:51;77.20;;;35.50;;
13255;SDS011;37913;48.370;10.930;2022-12-07T12:20:35;76.65;;;35.88;;
13255;SDS011;37913;48.370;10.930;2022-12-07T12:23:10;82.22;;;37.13;;
13255;SDS011;37913;48.370;10.930;2022-12-07T12:25:41;77.53;;;35.78;;
13255;SDS011;37913;48.370;10.930;2022-12-07T12:28:22;78.90;;;35.97;;
13255;SDS011;37913;48.370;10.930;2022-12-07T12:33:38;78.80;;;35.60;;
13255;SDS011;37913;48.370;10.930;2022-12-07T12:36:23;78.82;;;35.90;;
13255;SDS011;37913;48.370;10.930;2022-12-07T12:41:52;79.43;;;35.78;;
13255;SDS011;37913;48.370;10.930;2022-12-07T12:44:39;81.30;;;36.35;;
13255;SDS011;37913;48.370;10.930;2022-12-07T12:53:05;80.72;;;36.42;;
13255;SDS011;37913;48.370;10.930;2022-12-07T12:56:05;75.97;;;34.90;;
13255;SDS011;37913;48.370;10.930;2022-12-07T12:59:02;78.65;;;35.95;;
13255;SDS011;37913;48.370;10.930;2022-12-07T13:01:52;79.50;;;35.72;;
13255;SDS011;37913;48.370;10.930;2022-12-07T13:04:25;79.55;;;35.42;;
13255;SDS011;37913;48.370;10.930;2022-12-07T13:07:10;76.68;;;34.88;;
13255;SDS011;37913;48.370;10.930;2022-12-07T13:09:39;73.63;;;34.30;;
13255;SDS011;37913;48.370;10.930;2022-12-07T13:12:15;81.93;;;36.25;;
13255;SDS011;37913;48.370;10.930;2022-12-07T13:14:55;96.95;;;38.97;;
13255;SDS011;37913;48.370;10.930;2022-12-07T13:20:45;73.95;;;33.95;;
13255;SDS011;37913;48.370;10.930;2022-12-07T13:23:14;73.40;;;34.22;;
13255;SDS011;37913;48.370;10.930;2022-12-07T13:25:48;76.30;;;34.63;;
13255;SDS011;37913;48.370;10.930;2022-12-07T13:28:23;76.70;;;35.10;;
13255;SDS011;37913;48.370;10.930;2022-12-07T13:31:00;74.78;;;33.42;;
13255;SDS011;37913;48.370;10.930;2022-12-07T13:33:44;72.80;;;34.45;;
13255;SDS011;37913;48.370;10.930;2022-12-07T13:36:14;72.68;;;34.03;;
13255;SDS011;37913;48.370;10.930;2022-12-07T13:38:50;74.82;;;34.80;;
13255;SDS011;37913;48.370;10.930;2022-12-07T13:41:20;75.60;;;34.65;;
13255;SDS011;37913;48.370;10.930;2022-12-07T13:43:50;77.07;;;34.63;;
13255;SDS011;37913;48.370;10.930;2022-12-07T13:46:25;76.00;;;34.90;;
13255;SDS011;37913;48.370;10.930;2022-12-07T13:48:58;77.18;;;33.47;;
13255;SDS011;37913;48.370;10.930;2022-12-07T13:51:26;74.25;;;33.88;;
13255;SDS011;37913;48.370;10.930;2022-12-07T13:53:55;78.60;;;35.40;;
13255;SDS011;37913;48.370;10.930;2022-12-07T13:56:28;78.10;;;35.55;;
13255;SDS011;37913;48.370;10.930;2022-12-07T13:59:00;74.85;;;34.30;;
13255;SDS011;37913;48.370;10.930;2022-12-07T14:01:30;73.30;;;34.03;;
13255;SDS011;37913;48.370;10.930;2022-12-07T14:06:46;74.35;;;34.33;;
13255;SDS011;37913;48.370;10.930;2022-12-07T14:09:17;70.88;;;33.17;;
13255;SDS011;37913;48.370;10.930;2022-12-07T14:11:45;73.68;;;34.10;;
13255;SDS011;37913;48.370;10.930;2022-12-07T14:14:17;77.40;;;34.75;;
13255;SDS011;37913;48.370;10.930;2022-12-07T14:16:54;77.80;;;34.83;;
13255;SDS011;37913;48.370;10.930;2022-12-07T14:19:43;80.05;;;35.88;;
13255;SDS011;37913;48.370;10.930;2022-12-07T14:22:25;75.47;;;34.55;;
13255;SDS011;37913;48.370;10.930;2022-12-07T14:25:01;83.65;;;36.63;;
13255;SDS011;37913;48.370;10.930;2022-12-07T14:27:50;75.25;;;35.13;;
13255;SDS011;37913;48.370;10.930;2022-12-07T14:30:23;71.78;;;33.65;;
13255;SDS011;37913;48.370;10.930;2022-12-07T14:35:24;75.55;;;34.55;;
13255;SDS011;37913;48.370;10.930;2022-12-07T14:37:53;71.05;;;33.30;;
13255;SDS011;37913;48.370;10.930;2022-12-07T14:40:23;72.78;;;33.38;;
13255;SDS011;37913;48.370;10.930;2022-12-07T14:43:00;71.47;;;32.85;;
13255;SDS011;37913;48.370;10.930;2022-12-07T14:45:30;70.65;;;33.03;;
13255;SDS011;37913;48.370;10.930;2022-12-07T14:47:57;77.45;;;35.47;;
13255;SDS011;37913;48.370;10.930;2022-12-07T14:50:24;75.40;;;34.90;;
13255;SDS011;37913;48.370;10.930;2022-12-07T14:52:53;73.60;;;33.88;;
13255;SDS011;37913;48.370;10.930;2022-12-07T14:55:23;74.25;;;34.28;;
13255;SDS011;37913;48.370;10.930;2022-12-07T14:57:51;94.72;;;41.30;;
13255;SDS011;37913;48.370;10.930;2022-12-07T15:00:19;77.20;;;35.05;;
13255;SDS011;37913;48.370;10.930;2022-12-07T15:02:49;76.75;;;35.10;;
13255;SDS011;37913;48.370;10.930;2022-12-07T15:05:17;76.68;;;34.72;;
13255;SDS011;37913;48.370;10.930;2022-12-07T15:07:45;69.25;;;32.40;;